Dukinfield, United Kingdom
Current Conditions -  °F | °C
As of 2:20 PM on Thursday 27 Nov 2014 (Local Time) from EGCC Reporting Station
Broken Clouds Broken Clouds  
Wind Chill: 46°   Ceiling: 1300
Heat Index: 46°   Visibility: 5mi
Dew Point: 46°   Wind: 3mph
Humidity: 100%   Direction: 180°S
Pressure: 29.56"   Gusts: NA
Location:  53.47°N, 2.09°W
Report Text: EGCC 271420Z 18003KT 8000 FEW005 SCT009 BKN013 08/08 Q1001 TEMPO BKN009
Loading
Personal Weather Stations






























Interactive Weather Map New forecast layout! Learn more

10-Day Weather Forecast

Advertisements
Track Severe Weather on mobile